sensor_id;sensor_type;location;lat;lon;timestamp;temperature;humidity
52267;DHT22;38223;50.940;4.034;2023-08-17T00:00:33;20.60;99.90
52267;DHT22;38223;50.940;4.034;2023-08-17T00:03:05;20.60;99.90
52267;DHT22;38223;50.940;4.034;2023-08-17T00:05:36;20.70;99.90
52267;DHT22;38223;50.940;4.034;2023-08-17T00:08:07;20.60;99.90
52267;DHT22;38223;50.940;4.034;2023-08-17T00:10:42;20.50;99.90
52267;DHT22;38223;50.940;4.034;2023-08-17T00:13:12;20.60;99.90
52267;DHT22;38223;50.940;4.034;2023-08-17T00:15:46;20.60;99.90
52267;DHT22;38223;50.940;4.034;2023-08-17T00:18:15;20.70;99.90
52267;DHT22;38223;50.940;4.034;2023-08-17T00:20:50;20.70;99.90
52267;DHT22;38223;50.940;4.034;2023-08-17T00:23:21;20.70;99.90
52267;DHT22;38223;50.940;4.034;2023-08-17T00:25:55;20.70;99.90
52267;DHT22;38223;50.940;4.034;2023-08-17T00:28:23;20.60;99.90
52267;DHT22;38223;50.940;4.034;2023-08-17T00:30:56;20.50;99.90
52267;DHT22;38223;50.940;4.034;2023-08-17T00:33:25;20.60;99.90
52267;DHT22;38223;50.940;4.034;2023-08-17T00:35:55;20.50;99.90
52267;DHT22;38223;50.940;4.034;2023-08-17T00:38:27;20.30;99.90
52267;DHT22;38223;50.940;4.034;2023-08-17T00:40:57;20.20;99.90
52267;DHT22;38223;50.940;4.034;2023-08-17T00:43:29;20.00;99.90
52267;DHT22;38223;50.940;4.034;2023-08-17T00:45:59;20.00;99.90
52267;DHT22;38223;50.940;4.034;2023-08-17T00:48:33;19.90;99.90
52267;DHT22;38223;50.940;4.034;2023-08-17T00:51:06;19.90;99.90
52267;DHT22;38223;50.940;4.034;2023-08-17T00:53:38;19.90;99.90
52267;DHT22;38223;50.940;4.034;2023-08-17T00:56:12;19.80;99.90
52267;DHT22;38223;50.940;4.034;2023-08-17T00:58:45;19.90;99.90
52267;DHT22;38223;50.940;4.034;2023-08-17T01:01:14;19.90;99.90
52267;DHT22;38223;50.940;4.034;2023-08-17T01:03:47;19.80;99.90
52267;DHT22;38223;50.940;4.034;2023-08-17T01:06:19;19.80;99.90
52267;DHT22;38223;50.940;4.034;2023-08-17T01:08:53;19.80;99.90
52267;DHT22;38223;50.940;4.034;2023-08-17T01:11:48;19.80;99.90
52267;DHT22;38223;50.940;4.034;2023-08-17T01:14:36;19.70;99.90
52267;DHT22;38223;50.940;4.034;2023-08-17T01:17:15;19.80;99.90
52267;DHT22;38223;50.940;4.034;2023-08-17T01:19:44;19.70;99.90
52267;DHT22;38223;50.940;4.034;2023-08-17T01:22:19;19.70;99.90
52267;DHT22;38223;50.940;4.034;2023-08-17T01:24:57;19.60;99.90
52267;DHT22;38223;50.940;4.034;2023-08-17T01:27:33;19.60;99.90
52267;DHT22;38223;50.940;4.034;2023-08-17T01:30:05;19.60;99.90
52267;DHT22;38223;50.940;4.034;2023-08-17T01:32:50;19.70;99.90
52267;DHT22;38223;50.940;4.034;2023-08-17T01:38:18;19.50;99.90
52267;DHT22;38223;50.940;4.034;2023-08-17T01:40:47;19.40;99.90
52267;DHT22;38223;50.940;4.034;2023-08-17T01:43:18;19.40;99.90
52267;DHT22;38223;50.940;4.034;2023-08-17T01:45:53;19.30;99.90
52267;DHT22;38223;50.940;4.034;2023-08-17T01:48:23;19.30;99.90
52267;DHT22;38223;50.940;4.034;2023-08-17T01:51:01;19.40;99.90
52267;DHT22;38223;50.940;4.034;2023-08-17T01:53:30;19.40;99.90
52267;DHT22;38223;50.940;4.034;2023-08-17T01:56:00;19.40;99.90
52267;DHT22;38223;50.940;4.034;2023-08-17T01:58:31;19.20;99.90
52267;DHT22;38223;50.940;4.034;2023-08-17T02:01:03;19.20;99.90
52267;DHT22;38223;50.940;4.034;2023-08-17T02:03:35;19.20;99.90
52267;DHT22;38223;50.940;4.034;2023-08-17T02:06:05;19.20;99.90
52267;DHT22;38223;50.940;4.034;2023-08-17T02:08:37;19.20;99.90
52267;DHT22;38223;50.940;4.034;2023-08-17T02:11:09;19.20;99.90
52267;DHT22;38223;50.940;4.034;2023-08-17T02:13:41;19.30;99.90
52267;DHT22;38223;50.940;4.034;2023-08-17T02:16:11;19.30;99.90
52267;DHT22;38223;50.940;4.034;2023-08-17T02:18:44;19.10;99.90
52267;DHT22;38223;50.940;4.034;2023-08-17T02:21:15;19.10;99.90
52267;DHT22;38223;50.940;4.034;2023-08-17T02:23:47;19.10;99.90
52267;DHT22;38223;50.940;4.034;2023-08-17T02:26:22;19.10;99.90
52267;DHT22;38223;50.940;4.034;2023-08-17T02:28:54;19.20;99.90
52267;DHT22;38223;50.940;4.034;2023-08-17T02:31:29;19.10;99.90
52267;DHT22;38223;50.940;4.034;2023-08-17T02:33:58;19.10;99.90
52267;DHT22;38223;50.940;4.034;2023-08-17T02:36:31;19.00;99.90
52267;DHT22;38223;50.940;4.034;2023-08-17T02:39:04;19.10;99.90
52267;DHT22;38223;50.940;4.034;2023-08-17T02:41:39;19.10;99.90
52267;DHT22;38223;50.940;4.034;2023-08-17T02:44:12;19.10;99.90
52267;DHT22;38223;50.940;4.034;2023-08-17T02:46:45;19.30;99.90
52267;DHT22;38223;50.940;4.034;2023-08-17T02:49:22;19.20;99.90
52267;DHT22;38223;50.940;4.034;2023-08-17T02:51:51;19.00;99.90
52267;DHT22;38223;50.940;4.034;2023-08-17T02:54:23;19.00;99.90
52267;DHT22;38223;50.940;4.034;2023-08-17T02:56:57;18.90;99.90
52267;DHT22;38223;50.940;4.034;2023-08-17T02:59:27;19.00;99.90
52267;DHT22;38223;50.940;4.034;2023-08-17T03:02:00;18.90;99.90
52267;DHT22;38223;50.940;4.034;2023-08-17T03:04:34;18.90;99.90
52267;DHT22;38223;50.940;4.034;2023-08-17T03:07:09;18.90;99.90
52267;DHT22;38223;50.940;4.034;2023-08-17T03:09:37;18.90;99.90
52267;DHT22;38223;50.940;4.034;2023-08-17T03:12:07;19.00;99.90
52267;DHT22;38223;50.940;4.034;2023-08-17T03:14:38;18.90;99.90
52267;DHT22;38223;50.940;4.034;2023-08-17T03:17:07;18.90;99.90
52267;DHT22;38223;50.940;4.034;2023-08-17T03:19:40;18.80;99.90
52267;DHT22;38223;50.940;4.034;2023-08-17T03:22:11;18.80;99.90
52267;DHT22;38223;50.940;4.034;2023-08-17T03:24:40;18.80;99.90
52267;DHT22;38223;50.940;4.034;2023-08-17T03:27:16;18.80;99.90
52267;DHT22;38223;50.940;4.034;2023-08-17T03:29:43;18.80;99.90
52267;DHT22;38223;50.940;4.034;2023-08-17T03:32:19;18.80;99.90
52267;DHT22;38223;50.940;4.034;2023-08-17T03:34:50;18.90;99.90
52267;DHT22;38223;50.940;4.034;2023-08-17T03:37:27;18.90;99.90
52267;DHT22;38223;50.940;4.034;2023-08-17T03:39:54;18.70;99.90
52267;DHT22;38223;50.940;4.034;2023-08-17T03:42:28;18.70;99.90
52267;DHT22;38223;50.940;4.034;2023-08-17T03:44:59;18.70;99.90
52267;DHT22;38223;50.940;4.034;2023-08-17T03:47:32;18.60;99.90
52267;DHT22;38223;50.940;4.034;2023-08-17T03:50:01;18.70;99.90
52267;DHT22;38223;50.940;4.034;2023-08-17T03:52:32;18.80;99.90
52267;DHT22;38223;50.940;4.034;2023-08-17T03:55:04;18.90;99.90
52267;DHT22;38223;50.940;4.034;2023-08-17T03:57:36;19.10;99.90
52267;DHT22;38223;50.940;4.034;2023-08-17T04:00:10;19.20;99.90
52267;DHT22;38223;50.940;4.034;2023-08-17T04:02:43;19.10;99.90
52267;DHT22;38223;50.940;4.034;2023-08-17T04:05:15;19.10;99.90
52267;DHT22;38223;50.940;4.034;2023-08-17T04:07:48;19.00;99.90
52267;DHT22;38223;50.940;4.034;2023-08-17T04:10:22;19.00;99.90
52267;DHT22;38223;50.940;4.034;2023-08-17T04:12:53;18.90;99.90
52267;DHT22;38223;50.940;4.034;2023-08-17T04:15:27;18.90;99.90
52267;DHT22;38223;50.940;4.034;2023-08-17T04:18:00;18.80;99.90
52267;DHT22;38223;50.940;4.034;2023-08-17T04:20:32;18.80;99.90
52267;DHT22;38223;50.940;4.034;2023-08-17T04:23:07;18.70;99.90
52267;DHT22;38223;50.940;4.034;2023-08-17T04:25:40;18.70;99.90
52267;DHT22;38223;50.940;4.034;2023-08-17T04:28:14;18.80;99.90
52267;DHT22;38223;50.940;4.034;2023-08-17T04:30:45;18.80;99.90
52267;DHT22;38223;50.940;4.034;2023-08-17T04:33:16;18.60;99.90
52267;DHT22;38223;50.940;4.034;2023-08-17T04:35:49;18.60;99.90
52267;DHT22;38223;50.940;4.034;2023-08-17T04:38:25;18.60;99.90
52267;DHT22;38223;50.940;4.034;2023-08-17T04:40:56;18.60;99.90
52267;DHT22;38223;50.940;4.034;2023-08-17T04:43:27;18.60;99.90
52267;DHT22;38223;50.940;4.034;2023-08-17T04:45:59;18.60;99.90
52267;DHT22;38223;50.940;4.034;2023-08-17T04:48:31;18.70;99.90
52267;DHT22;38223;50.940;4.034;2023-08-17T04:51:00;18.70;99.90
52267;DHT22;38223;50.940;4.034;2023-08-17T04:53:29;18.70;99.90
52267;DHT22;38223;50.940;4.034;2023-08-17T04:56:03;18.60;99.90
52267;DHT22;38223;50.940;4.034;2023-08-17T04:58:36;18.60;99.90
52267;DHT22;38223;50.940;4.034;2023-08-17T05:01:07;18.70;99.90
52267;DHT22;38223;50.940;4.034;2023-08-17T05:03:41;18.80;99.90
52267;DHT22;38223;50.940;4.034;2023-08-17T05:06:13;18.70;99.90
52267;DHT22;38223;50.940;4.034;2023-08-17T05:08:48;18.60;99.90
52267;DHT22;38223;50.940;4.034;2023-08-17T05:11:15;18.60;99.90
52267;DHT22;38223;50.940;4.034;2023-08-17T05:13:51;18.60;99.90
52267;DHT22;38223;50.940;4.034;2023-08-17T05:16:19;18.60;99.90
52267;DHT22;38223;50.940;4.034;2023-08-17T05:18:51;18.50;99.90
52267;DHT22;38223;50.940;4.034;2023-08-17T05:21:25;18.50;99.90
52267;DHT22;38223;50.940;4.034;2023-08-17T05:23:57;18.60;99.90
52267;DHT22;38223;50.940;4.034;2023-08-17T05:26:31;18.70;99.90
52267;DHT22;38223;50.940;4.034;2023-08-17T05:29:04;18.70;99.90
52267;DHT22;38223;50.940;4.034;2023-08-17T05:31:33;18.70;99.90
52267;DHT22;38223;50.940;4.034;2023-08-17T05:34:09;18.70;99.90
52267;DHT22;38223;50.940;4.034;2023-08-17T05:36:37;18.70;99.90
52267;DHT22;38223;50.940;4.034;2023-08-17T05:39:10;18.70;99.90
52267;DHT22;38223;50.940;4.034;2023-08-17T05:41:37;18.80;99.90
52267;DHT22;38223;50.940;4.034;2023-08-17T05:44:10;18.80;99.90
52267;DHT22;38223;50.940;4.034;2023-08-17T05:46:44;18.80;99.90
52267;DHT22;38223;50.940;4.034;2023-08-17T05:49:15;18.60;99.90
52267;DHT22;38223;50.940;4.034;2023-08-17T05:51:47;18.50;99.90
52267;DHT22;38223;50.940;4.034;2023-08-17T05:54:15;18.50;99.90
52267;DHT22;38223;50.940;4.034;2023-08-17T05:56:49;18.50;99.90
52267;DHT22;38223;50.940;4.034;2023-08-17T05:59:18;18.60;99.90
52267;DHT22;38223;50.940;4.034;2023-08-17T06:01:53;18.60;99.90
52267;DHT22;38223;50.940;4.034;2023-08-17T06:04:21;18.80;99.90
52267;DHT22;38223;50.940;4.034;2023-08-17T06:06:52;18.90;99.90
52267;DHT22;38223;50.940;4.034;2023-08-17T06:09:21;19.00;99.90
52267;DHT22;38223;50.940;4.034;2023-08-17T06:11:53;19.00;99.90
52267;DHT22;38223;50.940;4.034;2023-08-17T06:14:25;18.90;99.90
52267;DHT22;38223;50.940;4.034;2023-08-17T06:16:56;18.60;99.90
52267;DHT22;38223;50.940;4.034;2023-08-17T06:19:29;18.50;99.90
52267;DHT22;38223;50.940;4.034;2023-08-17T06:21:57;18.40;99.90
52267;DHT22;38223;50.940;4.034;2023-08-17T06:24:29;18.30;99.90
52267;DHT22;38223;50.940;4.034;2023-08-17T06:27:00;18.30;99.90
52267;DHT22;38223;50.940;4.034;2023-08-17T06:29:33;18.40;99.90
52267;DHT22;38223;50.940;4.034;2023-08-17T06:32:03;18.40;99.90
52267;DHT22;38223;50.940;4.034;2023-08-17T06:34:33;18.50;99.90
52267;DHT22;38223;50.940;4.034;2023-08-17T06:37:03;18.50;99.90
52267;DHT22;38223;50.940;4.034;2023-08-17T06:39:36;18.60;99.90
52267;DHT22;38223;50.940;4.034;2023-08-17T06:42:08;18.60;99.90
52267;DHT22;38223;50.940;4.034;2023-08-17T06:44:38;18.60;99.90
52267;DHT22;38223;50.940;4.034;2023-08-17T06:47:09;18.70;99.90
52267;DHT22;38223;50.940;4.034;2023-08-17T06:49:40;18.70;99.90
52267;DHT22;38223;50.940;4.034;2023-08-17T06:52:14;18.60;99.90
52267;DHT22;38223;50.940;4.034;2023-08-17T06:54:44;18.60;99.90
52267;DHT22;38223;50.940;4.034;2023-08-17T06:57:21;18.50;99.90
52267;DHT22;38223;50.940;4.034;2023-08-17T06:59:50;18.60;99.90
52267;DHT22;38223;50.940;4.034;2023-08-17T07:02:32;18.60;99.90
52267;DHT22;38223;50.940;4.034;2023-08-17T07:05:03;18.60;99.90
52267;DHT22;38223;50.940;4.034;2023-08-17T07:07:31;18.60;99.90
52267;DHT22;38223;50.940;4.034;2023-08-17T07:10:03;18.70;99.90
52267;DHT22;38223;50.940;4.034;2023-08-17T07:12:34;18.70;99.90
52267;DHT22;38223;50.940;4.034;2023-08-17T07:15:08;18.60;99.90
52267;DHT22;38223;50.940;4.034;2023-08-17T07:17:39;18.70;99.90
52267;DHT22;38223;50.940;4.034;2023-08-17T07:20:11;18.70;99.90
52267;DHT22;38223;50.940;4.034;2023-08-17T07:22:45;18.60;99.90
52267;DHT22;38223;50.940;4.034;2023-08-17T07:25:15;18.60;99.90
52267;DHT22;38223;50.940;4.034;2023-08-17T07:27:46;18.50;99.90
52267;DHT22;38223;50.940;4.034;2023-08-17T07:30:15;18.40;99.90
52267;DHT22;38223;50.940;4.034;2023-08-17T07:32:51;18.50;99.90
52267;DHT22;38223;50.940;4.034;2023-08-17T07:35:19;18.50;99.90
52267;DHT22;38223;50.940;4.034;2023-08-17T07:37:52;18.60;99.90
52267;DHT22;38223;50.940;4.034;2023-08-17T07:40:19;18.60;99.90
52267;DHT22;38223;50.940;4.034;2023-08-17T07:42:52;18.50;99.90
52267;DHT22;38223;50.940;4.034;2023-08-17T07:45:23;18.40;99.90
52267;DHT22;38223;50.940;4.034;2023-08-17T07:47:52;18.40;99.90
52267;DHT22;38223;50.940;4.034;2023-08-17T07:50:25;18.40;99.90
52267;DHT22;38223;50.940;4.034;2023-08-17T07:52:55;18.30;99.90
52267;DHT22;38223;50.940;4.034;2023-08-17T07:55:25;18.10;99.90
52267;DHT22;38223;50.940;4.034;2023-08-17T07:57:59;18.00;99.90
52267;DHT22;38223;50.940;4.034;2023-08-17T08:00:28;17.90;99.90
52267;DHT22;38223;50.940;4.034;2023-08-17T08:02:59;18.00;99.90
52267;DHT22;38223;50.940;4.034;2023-08-17T08:05:32;18.00;99.90
52267;DHT22;38223;50.940;4.034;2023-08-17T08:08:04;18.00;99.90
52267;DHT22;38223;50.940;4.034;2023-08-17T08:10:37;18.00;99.90
52267;DHT22;38223;50.940;4.034;2023-08-17T08:13:11;18.20;99.90
52267;DHT22;38223;50.940;4.034;2023-08-17T08:15:40;18.30;99.90
52267;DHT22;38223;50.940;4.034;2023-08-17T08:18:10;18.20;99.90
52267;DHT22;38223;50.940;4.034;2023-08-17T08:20:44;18.10;99.90
52267;DHT22;38223;50.940;4.034;2023-08-17T08:23:16;18.20;99.90
52267;DHT22;38223;50.940;4.034;2023-08-17T08:25:52;18.20;99.90
52267;DHT22;38223;50.940;4.034;2023-08-17T08:28:23;18.30;99.90
52267;DHT22;38223;50.940;4.034;2023-08-17T08:30:51;18.40;99.90
52267;DHT22;38223;50.940;4.034;2023-08-17T08:33:27;18.40;99.90
52267;DHT22;38223;50.940;4.034;2023-08-17T08:35:58;18.40;99.90
52267;DHT22;38223;50.940;4.034;2023-08-17T08:38:29;18.40;99.90
52267;DHT22;38223;50.940;4.034;2023-08-17T08:40:59;18.30;99.90
52267;DHT22;38223;50.940;4.034;2023-08-17T08:43:31;18.30;99.90
52267;DHT22;38223;50.940;4.034;2023-08-17T08:46:04;18.30;99.90
52267;DHT22;38223;50.940;4.034;2023-08-17T08:48:42;18.50;99.90
52267;DHT22;38223;50.940;4.034;2023-08-17T08:51:14;18.50;99.90
52267;DHT22;38223;50.940;4.034;2023-08-17T08:53:49;18.60;99.90
52267;DHT22;38223;50.940;4.034;2023-08-17T08:56:22;18.70;99.90
52267;DHT22;38223;50.940;4.034;2023-08-17T08:58:57;18.80;99.90
52267;DHT22;38223;50.940;4.034;2023-08-17T09:01:32;19.00;99.90
52267;DHT22;38223;50.940;4.034;2023-08-17T09:04:02;19.00;99.90
52267;DHT22;38223;50.940;4.034;2023-08-17T09:06:34;19.10;99.90
52267;DHT22;38223;50.940;4.034;2023-08-17T09:09:07;19.10;99.90
52267;DHT22;38223;50.940;4.034;2023-08-17T09:11:41;19.10;99.90
52267;DHT22;38223;50.940;4.034;2023-08-17T09:14:13;19.10;99.90
52267;DHT22;38223;50.940;4.034;2023-08-17T09:16:47;18.90;99.90
52267;DHT22;38223;50.940;4.034;2023-08-17T09:19:18;18.80;99.90
52267;DHT22;38223;50.940;4.034;2023-08-17T09:21:53;18.90;99.90
52267;DHT22;38223;50.940;4.034;2023-08-17T09:24:22;18.90;99.90
52267;DHT22;38223;50.940;4.034;2023-08-17T09:26:52;18.90;99.90
52267;DHT22;38223;50.940;4.034;2023-08-17T09:29:24;19.00;99.90
52267;DHT22;38223;50.940;4.034;2023-08-17T09:31:58;19.10;99.90
52267;DHT22;38223;50.940;4.034;2023-08-17T09:34:31;19.10;99.90
52267;DHT22;38223;50.940;4.034;2023-08-17T09:37:06;19.20;99.90
52267;DHT22;38223;50.940;4.034;2023-08-17T09:39:43;19.30;99.90
52267;DHT22;38223;50.940;4.034;2023-08-17T09:42:13;19.40;99.90
52267;DHT22;38223;50.940;4.034;2023-08-17T09:44:47;19.60;99.90
52267;DHT22;38223;50.940;4.034;2023-08-17T09:47:19;19.60;99.90
52267;DHT22;38223;50.940;4.034;2023-08-17T09:49:55;19.50;99.90
52267;DHT22;38223;50.940;4.034;2023-08-17T09:52:25;19.50;99.90
52267;DHT22;38223;50.940;4.034;2023-08-17T09:54:59;19.40;99.90
52267;DHT22;38223;50.940;4.034;2023-08-17T09:57:31;19.40;99.90
52267;DHT22;38223;50.940;4.034;2023-08-17T10:00:05;19.50;99.90
52267;DHT22;38223;50.940;4.034;2023-08-17T10:02:36;19.60;99.90
52267;DHT22;38223;50.940;4.034;2023-08-17T10:05:10;19.60;99.90
52267;DHT22;38223;50.940;4.034;2023-08-17T10:07:43;19.60;99.90
52267;DHT22;38223;50.940;4.034;2023-08-17T10:10:17;19.80;99.90
52267;DHT22;38223;50.940;4.034;2023-08-17T10:13:09;19.80;99.90
52267;DHT22;38223;50.940;4.034;2023-08-17T10:18:41;19.80;99.90
52267;DHT22;38223;50.940;4.034;2023-08-17T10:21:17;19.70;99.90
52267;DHT22;38223;50.940;4.034;2023-08-17T10:23:46;19.90;99.90
52267;DHT22;38223;50.940;4.034;2023-08-17T10:26:17;20.00;99.90
52267;DHT22;38223;50.940;4.034;2023-08-17T10:28:49;20.00;99.90
52267;DHT22;38223;50.940;4.034;2023-08-17T10:31:23;20.00;99.90
52267;DHT22;38223;50.940;4.034;2023-08-17T10:33:53;19.90;99.90
52267;DHT22;38223;50.940;4.034;2023-08-17T10:36:29;19.90;99.90
52267;DHT22;38223;50.940;4.034;2023-08-17T10:39:20;20.00;99.90
52267;DHT22;38223;50.940;4.034;2023-08-17T10:41:56;20.10;99.90
52267;DHT22;38223;50.940;4.034;2023-08-17T10:44:46;20.10;99.90
52267;DHT22;38223;50.940;4.034;2023-08-17T10:47:31;20.00;99.90
52267;DHT22;38223;50.940;4.034;2023-08-17T10:50:20;20.30;99.90
52267;DHT22;38223;50.940;4.034;2023-08-17T10:52:47;20.30;99.90
52267;DHT22;38223;50.940;4.034;2023-08-17T10:55:19;20.40;99.90
52267;DHT22;38223;50.940;4.034;2023-08-17T10:57:49;20.40;99.90
52267;DHT22;38223;50.940;4.034;2023-08-17T11:00:27;20.50;99.90
52267;DHT22;38223;50.940;4.034;2023-08-17T11:03:09;20.70;99.90
52267;DHT22;38223;50.940;4.034;2023-08-17T11:05:53;20.80;99.90
52267;DHT22;38223;50.940;4.034;2023-08-17T11:08:37;20.90;99.90
52267;DHT22;38223;50.940;4.034;2023-08-17T11:11:11;20.90;99.90
52267;DHT22;38223;50.940;4.034;2023-08-17T11:13:47;20.90;99.90
52267;DHT22;38223;50.940;4.034;2023-08-17T11:16:17;21.00;99.90
52267;DHT22;38223;50.940;4.034;2023-08-17T11:18:51;21.10;99.90
52267;DHT22;38223;50.940;4.034;2023-08-17T11:21:22;21.10;99.90
52267;DHT22;38223;50.940;4.034;2023-08-17T11:23:50;20.90;99.90
52267;DHT22;38223;50.940;4.034;2023-08-17T11:26:19;20.60;99.90
52267;DHT22;38223;50.940;4.034;2023-08-17T11:28:53;20.60;99.90
52267;DHT22;38223;50.940;4.034;2023-08-17T11:31:22;20.60;99.90
52267;DHT22;38223;50.940;4.034;2023-08-17T11:33:54;20.50;99.90
52267;DHT22;38223;50.940;4.034;2023-08-17T11:36:26;20.60;99.90
52267;DHT22;38223;50.940;4.034;2023-08-17T11:39:01;20.60;99.90
52267;DHT22;38223;50.940;4.034;2023-08-17T11:41:31;20.60;99.90
52267;DHT22;38223;50.940;4.034;2023-08-17T11:44:04;20.60;99.90
52267;DHT22;38223;50.940;4.034;2023-08-17T11:46:34;20.70;99.90
52267;DHT22;38223;50.940;4.034;2023-08-17T11:49:07;20.60;99.90
52267;DHT22;38223;50.940;4.034;2023-08-17T11:51:38;20.60;99.90
52267;DHT22;38223;50.940;4.034;2023-08-17T11:54:06;20.60;99.90
52267;DHT22;38223;50.940;4.034;2023-08-17T11:56:38;20.70;99.90
52267;DHT22;38223;50.940;4.034;2023-08-17T11:59:13;20.80;99.90
52267;DHT22;38223;50.940;4.034;2023-08-17T12:01:48;20.70;99.90
52267;DHT22;38223;50.940;4.034;2023-08-17T12:04:23;20.70;99.90
52267;DHT22;38223;50.940;4.034;2023-08-17T12:07:00;20.60;99.90
52267;DHT22;38223;50.940;4.034;2023-08-17T12:09:27;20.60;99.90
52267;DHT22;38223;50.940;4.034;2023-08-17T12:12:01;20.70;99.90
52267;DHT22;38223;50.940;4.034;2023-08-17T12:14:31;20.80;99.90
52267;DHT22;38223;50.940;4.034;2023-08-17T12:17:07;20.90;99.90
52267;DHT22;38223;50.940;4.034;2023-08-17T12:19:35;21.00;99.90
52267;DHT22;38223;50.940;4.034;2023-08-17T12:22:08;21.10;99.90
52267;DHT22;38223;50.940;4.034;2023-08-17T12:24:43;21.10;99.90
52267;DHT22;38223;50.940;4.034;2023-08-17T12:27:11;21.20;99.90
52267;DHT22;38223;50.940;4.034;2023-08-17T12:29:51;21.10;99.90
52267;DHT22;38223;50.940;4.034;2023-08-17T12:32:24;21.00;99.90
52267;DHT22;38223;50.940;4.034;2023-08-17T12:34:54;21.10;99.90
52267;DHT22;38223;50.940;4.034;2023-08-17T12:37:24;21.00;99.90
52267;DHT22;38223;50.940;4.034;2023-08-17T12:39:55;21.30;99.90
52267;DHT22;38223;50.940;4.034;2023-08-17T12:42:26;21.50;99.90
52267;DHT22;38223;50.940;4.034;2023-08-17T12:44:55;21.50;99.90
52267;DHT22;38223;50.940;4.034;2023-08-17T12:47:26;21.40;99.90
52267;DHT22;38223;50.940;4.034;2023-08-17T12:49:56;21.20;99.90
52267;DHT22;38223;50.940;4.034;2023-08-17T12:52:28;21.20;99.90
52267;DHT22;38223;50.940;4.034;2023-08-17T12:55:03;21.30;99.90
52267;DHT22;38223;50.940;4.034;2023-08-17T12:57:35;21.20;99.90
52267;DHT22;38223;50.940;4.034;2023-08-17T13:00:09;21.30;99.90
52267;DHT22;38223;50.940;4.034;2023-08-17T13:02:40;21.40;99.90
52267;DHT22;38223;50.940;4.034;2023-08-17T13:05:11;21.20;99.90
52267;DHT22;38223;50.940;4.034;2023-08-17T13:07:41;21.20;99.90
52267;DHT22;38223;50.940;4.034;2023-08-17T13:10:14;21.30;99.90
52267;DHT22;38223;50.940;4.034;2023-08-17T13:12:46;21.40;99.90
52267;DHT22;38223;50.940;4.034;2023-08-17T13:15:18;21.40;99.90
52267;DHT22;38223;50.940;4.034;2023-08-17T13:17:51;21.30;99.90
52267;DHT22;38223;50.940;4.034;2023-08-17T13:20:23;21.40;99.90
52267;DHT22;38223;50.940;4.034;2023-08-17T13:22:55;21.40;99.90
52267;DHT22;38223;50.940;4.034;2023-08-17T13:25:27;21.40;99.90
52267;DHT22;38223;50.940;4.034;2023-08-17T13:28:00;21.40;99.90
52267;DHT22;38223;50.940;4.034;2023-08-17T13:30:32;21.50;99.90
52267;DHT22;38223;50.940;4.034;2023-08-17T13:33:04;21.30;99.90
52267;DHT22;38223;50.940;4.034;2023-08-17T13:35:36;21.20;99.90
52267;DHT22;38223;50.940;4.034;2023-08-17T13:38:08;21.20;99.90
52267;DHT22;38223;50.940;4.034;2023-08-17T13:40:40;21.20;99.90
52267;DHT22;38223;50.940;4.034;2023-08-17T13:43:13;21.20;99.90
52267;DHT22;38223;50.940;4.034;2023-08-17T13:45:45;21.30;99.90
52267;DHT22;38223;50.940;4.034;2023-08-17T13:48:17;21.40;99.90
52267;DHT22;38223;50.940;4.034;2023-08-17T13:50:53;21.50;99.90
52267;DHT22;38223;50.940;4.034;2023-08-17T13:53:20;21.80;99.90
52267;DHT22;38223;50.940;4.034;2023-08-17T13:55:51;21.80;99.90
52267;DHT22;38223;50.940;4.034;2023-08-17T13:58:22;21.80;99.90
52267;DHT22;38223;50.940;4.034;2023-08-17T14:00:56;21.80;99.90
52267;DHT22;38223;50.940;4.034;2023-08-17T14:03:25;21.80;99.90
52267;DHT22;38223;50.940;4.034;2023-08-17T14:05:54;21.80;99.90
52267;DHT22;38223;50.940;4.034;2023-08-17T14:08:28;21.80;99.90
52267;DHT22;38223;50.940;4.034;2023-08-17T14:11:01;22.00;99.90
52267;DHT22;38223;50.940;4.034;2023-08-17T14:13:34;22.10;99.90
52267;DHT22;38223;50.940;4.034;2023-08-17T14:16:07;22.00;99.90
52267;DHT22;38223;50.940;4.034;2023-08-17T14:18:40;22.00;99.90
52267;DHT22;38223;50.940;4.034;2023-08-17T14:21:15;22.00;99.90
52267;DHT22;38223;50.940;4.034;2023-08-17T14:23:50;22.10;99.90
52267;DHT22;38223;50.940;4.034;2023-08-17T14:26:23;22.10;99.90
52267;DHT22;38223;50.940;4.034;2023-08-17T14:28:55;22.20;99.90
52267;DHT22;38223;50.940;4.034;2023-08-17T14:31:26;22.00;99.90
52267;DHT22;38223;50.940;4.034;2023-08-17T14:33:57;22.00;99.90
52267;DHT22;38223;50.940;4.034;2023-08-17T14:36:33;21.90;99.90
52267;DHT22;38223;50.940;4.034;2023-08-17T14:39:01;22.00;99.90
52267;DHT22;38223;50.940;4.034;2023-08-17T14:41:33;22.00;99.90
52267;DHT22;38223;50.940;4.034;2023-08-17T14:44:06;22.20;99.90
52267;DHT22;38223;50.940;4.034;2023-08-17T14:46:37;22.20;99.90
52267;DHT22;38223;50.940;4.034;2023-08-17T14:49:10;22.00;99.90
52267;DHT22;38223;50.940;4.034;2023-08-17T14:51:40;22.10;99.90
52267;DHT22;38223;50.940;4.034;2023-08-17T14:54:13;21.90;99.90
52267;DHT22;38223;50.940;4.034;2023-08-17T14:56:45;21.80;99.90
52267;DHT22;38223;50.940;4.034;2023-08-17T14:59:17;21.80;99.90
52267;DHT22;38223;50.940;4.034;2023-08-17T15:01:49;21.90;99.90
52267;DHT22;38223;50.940;4.034;2023-08-17T15:04:22;22.00;99.90
52267;DHT22;38223;50.940;4.034;2023-08-17T15:06:57;22.00;99.90
52267;DHT22;38223;50.940;4.034;2023-08-17T15:09:27;21.90;99.90
52267;DHT22;38223;50.940;4.034;2023-08-17T15:12:00;21.90;99.90
52267;DHT22;38223;50.940;4.034;2023-08-17T15:14:27;22.00;99.90
52267;DHT22;38223;50.940;4.034;2023-08-17T15:16:56;22.20;99.90
52267;DHT22;38223;50.940;4.034;2023-08-17T15:19:28;22.20;99.90
52267;DHT22;38223;50.940;4.034;2023-08-17T15:21:59;22.20;99.90
52267;DHT22;38223;50.940;4.034;2023-08-17T15:24:34;22.20;99.90
52267;DHT22;38223;50.940;4.034;2023-08-17T15:27:04;22.30;99.90
52267;DHT22;38223;50.940;4.034;2023-08-17T15:29:34;22.20;99.90
52267;DHT22;38223;50.940;4.034;2023-08-17T15:32:07;22.30;99.90
52267;DHT22;38223;50.940;4.034;2023-08-17T15:34:37;22.30;99.90
52267;DHT22;38223;50.940;4.034;2023-08-17T15:37:07;22.10;99.90
52267;DHT22;38223;50.940;4.034;2023-08-17T15:39:39;22.20;99.90
52267;DHT22;38223;50.940;4.034;2023-08-17T15:42:10;22.20;99.90
52267;DHT22;38223;50.940;4.034;2023-08-17T15:44:41;22.30;99.90
52267;DHT22;38223;50.940;4.034;2023-08-17T15:47:13;22.40;99.90
52267;DHT22;38223;50.940;4.034;2023-08-17T15:49:46;22.30;99.90
52267;DHT22;38223;50.940;4.034;2023-08-17T15:52:15;22.10;99.90
52267;DHT22;38223;50.940;4.034;2023-08-17T15:54:47;22.20;99.90
52267;DHT22;38223;50.940;4.034;2023-08-17T15:57:18;22.20;99.90
52267;DHT22;38223;50.940;4.034;2023-08-17T15:59:52;22.00;99.90
52267;DHT22;38223;50.940;4.034;2023-08-17T16:02:26;22.10;99.90
52267;DHT22;38223;50.940;4.034;2023-08-17T16:04:57;22.20;99.90
52267;DHT22;38223;50.940;4.034;2023-08-17T16:07:30;22.10;99.90